Bow Clipper — LAUU4 — position and weather

sailwx.info

Track history (hours):
 
Tides and Currents Weather Stations Pressure Air Temp Water Temp Dewpoint Dewpoint Depression Visibility Wind Speed Wind Dir Waves Ship Positions

Bow Clipper

Last reported at 2017-Jan-24 14:18 UTC. Time now 2017-Jan-25 01:17 UTC.
Position N 29°18' W 094°30'.

Length 188 m; draft 6.1 m.

Type: Ship (hazmat cat B). MMSI: 258946991.

Date/timePositionNaut miles runAvg speedWind from/ knotsBaromVisibWave heightAir tempDewpointWater temp
2017-Jan-24 14:18N 29°18' W 094°30'0 0.0
2017-Jan-24 13:32N 29°18' W 094°30'0 0.0
2017-Jan-24 08:29N 29°18' W 094°30'5 4.8
2017-Jan-24 07:32N 29°18' W 094°36'1111.2
2017-Jan-24 06:33N 29°22' W 094°48'1110.9
2017-Jan-24 05:33N 29°31' W 094°53'9 9.4
2017-Jan-24 04:33N 29°39' W 094°58'8 7.8
2017-Jan-24 03:33N 29°45' W 095°04'2 0.1
2017-Jan-23 13:33N 29°45' W 095°06'5 4.7
2017-Jan-23 12:33N 29°42' W 095°01'1010.0
2017-Jan-23 11:33N 29°34' W 094°55'10 9.8
2017-Jan-23 10:33N 29°25' W 094°50'15 0.5
2017-Jan-22 03:33N 29°17' W 094°36'1010.2
2017-Jan-22 02:33N 29°21' W 094°47'1212.1
2017-Jan-22 01:33N 29°31' W 094°53'1111.1
2017-Jan-22 00:33N 29°41' W 094°59'7 7.1
2017-Jan-21 23:33N 29°45' W 095°06'2 1.7
2017-Jan-21 22:31N 29°44' W 095°08'0 0.0
2017-Jan-21 21:31N 29°44' W 095°08'0 0.0
2017-Jan-21 20:31N 29°44' W 095°08'0 0.0
2017-Jan-21 19:31N 29°44' W 095°08'0 0.0
2017-Jan-21 18:31N 29°44' W 095°08'0 0.0
2017-Jan-21 17:31N 29°44' W 095°08'0 0.0
2017-Jan-21 16:31N 29°44' W 095°08'0 0.0
2017-Jan-21 15:31N 29°44' W 095°08'0 0.0
2017-Jan-21 14:28N 29°44' W 095°08'0 0.0
2017-Jan-21 13:28N 29°44' W 095°08'0 0.0
2017-Jan-20 11:33N 29°44' W 095°08'4 3.7
2017-Jan-20 10:33N 29°44' W 095°03'6 6.4
2017-Jan-20 09:33N 29°40' W 094°58'10 9.8
2017-Jan-20 08:33N 29°31' W 094°53'21 1.7
2017-Jan-19 20:18N 29°18' W 094°34'1 0.4
2017-Jan-19 18:33N 29°18' W 094°35'1010.0
2017-Jan-19 17:33N 29°21' W 094°46'7 6.7
2017-Jan-19 16:33N 29°23' W 094°54'  
2017-Jan-16 03:26N 29°25' W 094°50'1011.9
2017-Jan-16 02:33N 29°34' W 094°55'1010.0
2017-Jan-16 01:33N 29°43' W 095°01'4 0.2
2017-Jan-14 21:15N 29°45' W 095°06'2 2.2
2017-Jan-14 20:33N 29°46' W 095°05'7 7.3
2017-Jan-14 19:33N 29°40' W 094°59'  
Track history (hours):
 
Tides and Currents Weather Stations Pressure Air Temp Water Temp Dewpoint Dewpoint Depression Visibility Wind Speed Wind Dir Waves Ship Positions

Bow Clipper

Last reported at 2017-Jan-24 14:18 UTC. Time now 2017-Jan-25 01:17 UTC.
Position N 29°18' W 094°30'.

Length 188 m; draft 6.1 m.

Type: Ship (hazmat cat B). MMSI: 258946991.

Date/timePositionNaut miles runAvg speedWind from/ knotsBaromVisibWave heightAir tempDewpointWater temp
2017-Jan-24 14:18N 29°18' W 094°30'0 0.0
2017-Jan-24 13:32N 29°18' W 094°30'0 0.0
2017-Jan-24 08:29N 29°18' W 094°30'5 4.8
2017-Jan-24 07:32N 29°18' W 094°36'1111.2
2017-Jan-24 06:33N 29°22' W 094°48'1110.9
2017-Jan-24 05:33N 29°31' W 094°53'9 9.4
2017-Jan-24 04:33N 29°39' W 094°58'8 7.8
2017-Jan-24 03:33N 29°45' W 095°04'2 0.1
2017-Jan-23 13:33N 29°45' W 095°06'5 4.7
2017-Jan-23 12:33N 29°42' W 095°01'1010.0
2017-Jan-23 11:33N 29°34' W 094°55'10 9.8
2017-Jan-23 10:33N 29°25' W 094°50'15 0.5
2017-Jan-22 03:33N 29°17' W 094°36'1010.2
2017-Jan-22 02:33N 29°21' W 094°47'1212.1
2017-Jan-22 01:33N 29°31' W 094°53'1111.1
2017-Jan-22 00:33N 29°41' W 094°59'7 7.1
2017-Jan-21 23:33N 29°45' W 095°06'2 1.7
2017-Jan-21 22:31N 29°44' W 095°08'0 0.0
2017-Jan-21 21:31N 29°44' W 095°08'0 0.0
2017-Jan-21 20:31N 29°44' W 095°08'0 0.0
2017-Jan-21 19:31N 29°44' W 095°08'0 0.0
2017-Jan-21 18:31N 29°44' W 095°08'0 0.0
2017-Jan-21 17:31N 29°44' W 095°08'0 0.0
2017-Jan-21 16:31N 29°44' W 095°08'0 0.0
2017-Jan-21 15:31N 29°44' W 095°08'0 0.0
2017-Jan-21 14:28N 29°44' W 095°08'0 0.0
2017-Jan-21 13:28N 29°44' W 095°08'0 0.0
2017-Jan-20 11:33N 29°44' W 095°08'4 3.7
2017-Jan-20 10:33N 29°44' W 095°03'6 6.4
2017-Jan-20 09:33N 29°40' W 094°58'10 9.8
2017-Jan-20 08:33N 29°31' W 094°53'21 1.7
2017-Jan-19 20:18N 29°18' W 094°34'1 0.4
2017-Jan-19 18:33N 29°18' W 094°35'1010.0
2017-Jan-19 17:33N 29°21' W 094°46'7 6.7
2017-Jan-19 16:33N 29°23' W 094°54'  
2017-Jan-16 03:26N 29°25' W 094°50'1011.9
2017-Jan-16 02:33N 29°34' W 094°55'1010.0
2017-Jan-16 01:33N 29°43' W 095°01'4 0.2
2017-Jan-14 21:15N 29°45' W 095°06'2 2.2
2017-Jan-14 20:33N 29°46' W 095°05'7 7.3
2017-Jan-14 19:33N 29°40' W 094°59'  

Dump ship's entire track history